ACA1075 CYUL-KDEN
Flight info
| Callsign | ACA1075 |
|---|---|
| Flight time | N/A |
| Altitude | 40000 |
| Route | KESKA DCT BIPKO DCT IPSAK DCT OMEGI DCT RADEN DCT OXASA DCT SSM DCT KP03K DCT KP87G DCT ONL DCT PORDR AALLE4 |
| Aircraft | A333/H-SDE3GHIJ2J3J5M1RVWXY/LB2D1 |
Departure
| Time | N/A |
|---|---|
| Airport | Montreal / Pierre Elliott Trudeau International Airport (CYUL) |
Arrival
| Time | 2026-05-03 22:25 |
|---|---|
| Airport | Denver International Airport (KDEN) |
| Time | Latitude | Longitude | Altitude | Speed | Heading |
|---|---|---|---|---|---|
| 2026-05-03 20:15 | 45.95740 | -87.39056 | 39667 ft | 441 kts | 259° |
| 2026-05-03 20:15 | 45.94342 | -87.47636 | 39662 ft | 441 kts | 259° |
| 2026-05-03 20:16 | 45.92939 | -87.56202 | 39667 ft | 441 kts | 259° |
| 2026-05-03 20:16 | 45.91529 | -87.64766 | 39650 ft | 440 kts | 259° |
| 2026-05-03 20:17 | 45.90113 | -87.73329 | 39662 ft | 441 kts | 259° |
| 2026-05-03 20:17 | 45.88689 | -87.81893 | 39655 ft | 441 kts | 259° |
| 2026-05-03 20:18 | 45.87258 | -87.90457 | 39649 ft | 441 kts | 259° |
| 2026-05-03 20:18 | 45.85818 | -87.99017 | 39646 ft | 441 kts | 259° |
| 2026-05-03 20:19 | 45.84380 | -88.07513 | 39645 ft | 441 kts | 259° |
| 2026-05-03 20:19 | 45.82929 | -88.16060 | 39669 ft | 441 kts | 259° |
| 2026-05-03 20:20 | 45.81473 | -88.24605 | 39669 ft | 441 kts | 259° |
| 2026-05-03 20:20 | 45.79989 | -88.33121 | 39675 ft | 441 kts | 257° |
| 2026-05-03 20:21 | 45.78474 | -88.41635 | 39674 ft | 441 kts | 258° |
| 2026-05-03 20:21 | 45.76979 | -88.50152 | 39677 ft | 440 kts | 258° |
| 2026-05-03 20:22 | 45.75497 | -88.58655 | 39679 ft | 440 kts | 258° |
| 2026-05-03 20:22 | 45.74014 | -88.67157 | 39683 ft | 440 kts | 258° |
| 2026-05-03 20:23 | 45.72527 | -88.75647 | 39688 ft | 440 kts | 258° |
| 2026-05-03 20:23 | 45.71031 | -88.84136 | 39680 ft | 440 kts | 258° |
| 2026-05-03 20:24 | 45.69527 | -88.92628 | 39695 ft | 440 kts | 258° |
| 2026-05-03 20:24 | 45.68020 | -89.01099 | 39695 ft | 440 kts | 258° |
| 2026-05-03 20:25 | 45.66505 | -89.09568 | 39694 ft | 440 kts | 258° |
| 2026-05-03 20:25 | 45.64985 | -89.18031 | 39693 ft | 440 kts | 258° |
| 2026-05-03 20:26 | 45.63456 | -89.26497 | 39690 ft | 440 kts | 258° |
| 2026-05-03 20:26 | 45.61926 | -89.34944 | 39692 ft | 439 kts | 258° |
| 2026-05-03 20:27 | 45.60388 | -89.43387 | 39691 ft | 439 kts | 258° |
| 2026-05-03 20:27 | 45.58844 | -89.51829 | 39692 ft | 439 kts | 258° |
| 2026-05-03 20:28 | 45.57293 | -89.60266 | 39690 ft | 439 kts | 258° |
| 2026-05-03 20:28 | 45.55736 | -89.68698 | 39701 ft | 440 kts | 258° |
| 2026-05-03 20:29 | 45.54182 | -89.77074 | 39701 ft | 440 kts | 258° |
| 2026-05-03 20:29 | 45.52600 | -89.85564 | 39701 ft | 440 kts | 257° |
| 2026-05-03 20:30 | 45.51025 | -89.93982 | 39700 ft | 440 kts | 257° |
| 2026-05-03 20:30 | 45.49405 | -90.02322 | 39699 ft | 440 kts | 256° |
| 2026-05-03 20:31 | 45.47530 | -90.10631 | 39701 ft | 440 kts | 254° |
| 2026-05-03 20:31 | 45.45583 | -90.18906 | 39708 ft | 441 kts | 254° |
| 2026-05-03 20:32 | 45.43646 | -90.27183 | 39707 ft | 441 kts | 255° |
| 2026-05-03 20:32 | 45.41721 | -90.35463 | 39710 ft | 440 kts | 255° |
| 2026-05-03 20:33 | 45.39800 | -90.43730 | 39711 ft | 440 kts | 255° |
| 2026-05-03 20:33 | 45.37869 | -90.52007 | 39708 ft | 440 kts | 255° |
| 2026-05-03 20:34 | 45.35935 | -90.60260 | 39717 ft | 440 kts | 255° |
| 2026-05-03 20:34 | 45.33991 | -90.68523 | 39715 ft | 440 kts | 255° |
| 2026-05-03 20:35 | 45.32043 | -90.76773 | 39718 ft | 440 kts | 254° |
| 2026-05-03 20:35 | 45.30088 | -90.85021 | 39725 ft | 440 kts | 255° |
| 2026-05-03 20:36 | 45.28129 | -90.93253 | 39725 ft | 440 kts | 255° |
| 2026-05-03 20:36 | 45.26168 | -91.01465 | 39731 ft | 440 kts | 254° |
| 2026-05-03 20:37 | 45.24191 | -91.09714 | 39731 ft | 440 kts | 254° |
| 2026-05-03 20:37 | 45.22213 | -91.17938 | 39717 ft | 440 kts | 254° |
| 2026-05-03 20:38 | 45.20228 | -91.26157 | 39731 ft | 441 kts | 254° |
| 2026-05-03 20:38 | 45.18238 | -91.34370 | 39719 ft | 441 kts | 254° |
| 2026-05-03 20:39 | 45.16241 | -91.42578 | 39739 ft | 440 kts | 254° |
| 2026-05-03 20:39 | 45.14238 | -91.50784 | 39740 ft | 440 kts | 254° |
| 2026-05-03 20:40 | 45.12245 | -91.58921 | 39743 ft | 440 kts | 254° |
| 2026-05-03 20:40 | 45.10231 | -91.67111 | 39743 ft | 440 kts | 254° |
| 2026-05-03 20:41 | 45.08213 | -91.75290 | 39745 ft | 440 kts | 254° |
| 2026-05-03 20:41 | 45.06188 | -91.83470 | 39742 ft | 441 kts | 254° |
| 2026-05-03 20:42 | 45.04156 | -91.91646 | 39744 ft | 441 kts | 254° |
| 2026-05-03 20:42 | 45.02120 | -91.99803 | 39755 ft | 440 kts | 254° |
| 2026-05-03 20:43 | 45.00078 | -92.07964 | 39757 ft | 440 kts | 254° |
| 2026-05-03 20:43 | 44.98030 | -92.16114 | 39762 ft | 440 kts | 254° |
| 2026-05-03 20:44 | 44.95977 | -92.24258 | 39760 ft | 440 kts | 254° |
| 2026-05-03 20:44 | 44.93918 | -92.32398 | 39759 ft | 440 kts | 254° |
| 2026-05-03 20:45 | 44.91854 | -92.40526 | 39767 ft | 440 kts | 253° |
| 2026-05-03 20:45 | 44.89786 | -92.48646 | 39764 ft | 440 kts | 253° |
| 2026-05-03 20:46 | 44.87711 | -92.56762 | 39777 ft | 440 kts | 253° |
| 2026-05-03 20:46 | 44.85629 | -92.64876 | 39771 ft | 440 kts | 253° |
| 2026-05-03 20:47 | 44.83542 | -92.72982 | 39766 ft | 440 kts | 253° |
| 2026-05-03 20:47 | 44.81453 | -92.81069 | 39776 ft | 440 kts | 253° |
| 2026-05-03 20:48 | 44.79355 | -92.89158 | 39783 ft | 440 kts | 253° |
| 2026-05-03 20:48 | 44.77255 | -92.97235 | 39781 ft | 440 kts | 253° |
| 2026-05-03 20:49 | 44.75145 | -93.05316 | 39768 ft | 440 kts | 253° |
| 2026-05-03 20:49 | 44.73033 | -93.13380 | 39801 ft | 439 kts | 253° |
| 2026-05-03 20:50 | 44.70916 | -93.21434 | 39803 ft | 439 kts | 253° |
| 2026-05-03 20:50 | 44.68807 | -93.29435 | 39804 ft | 439 kts | 253° |
| 2026-05-03 20:51 | 44.66680 | -93.37477 | 39805 ft | 439 kts | 253° |
| 2026-05-03 20:51 | 44.64547 | -93.45512 | 39802 ft | 439 kts | 253° |
| 2026-05-03 20:52 | 44.62408 | -93.53543 | 39803 ft | 439 kts | 253° |
| 2026-05-03 20:52 | 44.60262 | -93.61573 | 39804 ft | 439 kts | 253° |
| 2026-05-03 20:53 | 44.58110 | -93.69599 | 39805 ft | 439 kts | 253° |
| 2026-05-03 20:53 | 44.55939 | -93.77670 | 39806 ft | 439 kts | 253° |
| 2026-05-03 20:54 | 44.53791 | -93.85630 | 39810 ft | 439 kts | 252° |
| 2026-05-03 20:54 | 44.50534 | -93.97606 | 39824 ft | 439 kts | 251° |
| 2026-05-03 20:55 | 44.47790 | -94.05280 | 39820 ft | 442 kts | 245° |
| 2026-05-03 20:55 | 44.44806 | -94.12821 | 39826 ft | 443 kts | 244° |
| 2026-05-03 20:56 | 44.41771 | -94.20335 | 39826 ft | 443 kts | 244° |
| 2026-05-03 20:56 | 44.38737 | -94.27839 | 39840 ft | 443 kts | 244° |
| 2026-05-03 20:57 | 44.35707 | -94.35344 | 39827 ft | 443 kts | 244° |
| 2026-05-03 20:57 | 44.32675 | -94.42848 | 39836 ft | 443 kts | 244° |
| 2026-05-03 20:58 | 44.29641 | -94.50336 | 39824 ft | 442 kts | 244° |
| 2026-05-03 20:58 | 44.26605 | -94.57808 | 39823 ft | 442 kts | 244° |
| 2026-05-03 20:59 | 44.23567 | -94.65264 | 39837 ft | 442 kts | 244° |
| 2026-05-03 20:59 | 44.21037 | -94.71457 | 39840 ft | 442 kts | 244° |
| 2026-05-03 21:00 | 44.18506 | -94.77644 | 39848 ft | 442 kts | 244° |
| 2026-05-03 21:00 | 44.14938 | -94.86338 | 39848 ft | 442 kts | 244° |
| 2026-05-03 21:01 | 44.11385 | -94.94968 | 39833 ft | 442 kts | 244° |
| 2026-05-03 21:01 | 44.08823 | -95.01178 | 39847 ft | 442 kts | 244° |
| 2026-05-03 21:02 | 44.05757 | -95.08588 | 39850 ft | 441 kts | 244° |
| 2026-05-03 21:02 | 44.02693 | -95.15975 | 39850 ft | 441 kts | 244° |
| 2026-05-03 21:03 | 43.99621 | -95.23365 | 39857 ft | 441 kts | 244° |
| 2026-05-03 21:03 | 43.96565 | -95.30693 | 39854 ft | 441 kts | 244° |
| 2026-05-03 21:04 | 43.93485 | -95.38063 | 39863 ft | 442 kts | 244° |
| 2026-05-03 21:04 | 43.90400 | -95.45426 | 39866 ft | 442 kts | 244° |
| 2026-05-03 21:05 | 43.87311 | -95.52780 | 39871 ft | 441 kts | 244° |
| 2026-05-03 21:05 | 43.84215 | -95.60129 | 39870 ft | 441 kts | 244° |
| 2026-05-03 21:06 | 43.81118 | -95.67463 | 39871 ft | 441 kts | 243° |
| 2026-05-03 21:06 | 43.78014 | -95.74794 | 39875 ft | 441 kts | 243° |
| 2026-05-03 21:07 | 43.74911 | -95.82103 | 39871 ft | 440 kts | 243° |
| 2026-05-03 21:07 | 43.71806 | -95.89400 | 39875 ft | 440 kts | 243° |
| 2026-05-03 21:08 | 43.68698 | -95.96688 | 39874 ft | 440 kts | 243° |
| 2026-05-03 21:08 | 43.65583 | -96.03971 | 39866 ft | 440 kts | 243° |
| 2026-05-03 21:09 | 43.62469 | -96.11233 | 39863 ft | 439 kts | 243° |
| 2026-05-03 21:09 | 43.59354 | -96.18482 | 39869 ft | 439 kts | 243° |
| 2026-05-03 21:10 | 43.56231 | -96.25729 | 39884 ft | 439 kts | 243° |
| 2026-05-03 21:10 | 43.53104 | -96.32967 | 39883 ft | 439 kts | 243° |
| 2026-05-03 21:11 | 43.49973 | -96.40198 | 39881 ft | 439 kts | 243° |
| 2026-05-03 21:11 | 43.46838 | -96.47419 | 39866 ft | 439 kts | 243° |
| 2026-05-03 21:12 | 43.43699 | -96.54633 | 39878 ft | 439 kts | 243° |
| 2026-05-03 21:12 | 43.40554 | -96.61839 | 39884 ft | 439 kts | 243° |
| 2026-05-03 21:13 | 43.37426 | -96.68990 | 39885 ft | 439 kts | 243° |
| 2026-05-03 21:13 | 43.34274 | -96.76180 | 39888 ft | 439 kts | 243° |
| 2026-05-03 21:14 | 43.31116 | -96.83366 | 39888 ft | 439 kts | 243° |
| 2026-05-03 21:14 | 43.27954 | -96.90542 | 39907 ft | 439 kts | 243° |
| 2026-05-03 21:15 | 43.24788 | -96.97710 | 39910 ft | 439 kts | 243° |
| 2026-05-03 21:15 | 43.21616 | -97.04873 | 39915 ft | 439 kts | 243° |
| 2026-05-03 21:16 | 43.18444 | -97.12018 | 39917 ft | 438 kts | 243° |
| 2026-05-03 21:16 | 43.15273 | -97.19143 | 39921 ft | 438 kts | 243° |
| 2026-05-03 21:17 | 43.12635 | -97.25061 | 39918 ft | 438 kts | 243° |
| 2026-05-03 21:17 | 43.08919 | -97.33373 | 39916 ft | 438 kts | 243° |
| 2026-05-03 21:18 | 43.05736 | -97.40475 | 39912 ft | 438 kts | 243° |
| 2026-05-03 21:18 | 43.02568 | -97.47528 | 39910 ft | 438 kts | 243° |
| 2026-05-03 21:19 | 42.99354 | -97.54664 | 39939 ft | 438 kts | 243° |
| 2026-05-03 21:19 | 42.96157 | -97.61744 | 39915 ft | 437 kts | 243° |
| 2026-05-03 21:20 | 42.92966 | -97.68790 | 39939 ft | 436 kts | 243° |
| 2026-05-03 21:20 | 42.89800 | -97.75771 | 39935 ft | 435 kts | 243° |
| 2026-05-03 21:21 | 42.86611 | -97.82787 | 39932 ft | 435 kts | 243° |
| 2026-05-03 21:21 | 42.83415 | -97.89801 | 39935 ft | 436 kts | 243° |
| 2026-05-03 21:22 | 42.80215 | -97.96804 | 39929 ft | 436 kts | 243° |
| 2026-05-03 21:22 | 42.77010 | -98.03802 | 39920 ft | 435 kts | 243° |
| 2026-05-03 21:23 | 42.73807 | -98.10780 | 39930 ft | 435 kts | 242° |
| 2026-05-03 21:23 | 42.70604 | -98.17739 | 39926 ft | 433 kts | 243° |
| 2026-05-03 21:24 | 42.67415 | -98.24652 | 39922 ft | 431 kts | 243° |
| 2026-05-03 21:24 | 42.64228 | -98.31547 | 39922 ft | 431 kts | 243° |
| 2026-05-03 21:25 | 42.61036 | -98.38439 | 39910 ft | 431 kts | 242° |
| 2026-05-03 21:25 | 42.57846 | -98.45308 | 39927 ft | 429 kts | 242° |
| 2026-05-03 21:26 | 42.54659 | -98.52156 | 39929 ft | 429 kts | 242° |
| 2026-05-03 21:26 | 42.51465 | -98.59002 | 39932 ft | 429 kts | 242° |
| 2026-05-03 21:27 | 42.48272 | -98.65832 | 39933 ft | 429 kts | 242° |
| 2026-05-03 21:27 | 42.45113 | -98.72695 | 39917 ft | 429 kts | 243° |
| 2026-05-03 21:28 | 42.41979 | -98.79555 | 39934 ft | 428 kts | 243° |
| 2026-05-03 21:28 | 42.38837 | -98.86390 | 39931 ft | 428 kts | 243° |
| 2026-05-03 21:29 | 42.35708 | -98.93170 | 39926 ft | 428 kts | 243° |
| 2026-05-03 21:29 | 42.32555 | -98.99984 | 39926 ft | 428 kts | 243° |
| 2026-05-03 21:30 | 42.29390 | -99.06806 | 39923 ft | 428 kts | 242° |
| 2026-05-03 21:30 | 42.26226 | -99.13609 | 39923 ft | 427 kts | 243° |
| 2026-05-03 21:31 | 42.23064 | -99.20393 | 39919 ft | 426 kts | 243° |
| 2026-05-03 21:31 | 42.19902 | -99.27162 | 39921 ft | 425 kts | 243° |
| 2026-05-03 21:32 | 42.16746 | -99.33905 | 39922 ft | 425 kts | 243° |
| 2026-05-03 21:32 | 42.13584 | -99.40644 | 39916 ft | 425 kts | 242° |
| 2026-05-03 21:33 | 42.10418 | -99.47376 | 39899 ft | 425 kts | 242° |
| 2026-05-03 21:33 | 42.07250 | -99.54096 | 39914 ft | 424 kts | 242° |
| 2026-05-03 21:34 | 42.04087 | -99.60792 | 39912 ft | 424 kts | 242° |
| 2026-05-03 21:34 | 42.00918 | -99.67486 | 39912 ft | 424 kts | 242° |
| 2026-05-03 21:35 | 41.97744 | -99.74174 | 39908 ft | 424 kts | 242° |
| 2026-05-03 21:35 | 41.94577 | -99.80832 | 39911 ft | 422 kts | 242° |
| 2026-05-03 21:36 | 41.91417 | -99.87465 | 39915 ft | 422 kts | 242° |
| 2026-05-03 21:36 | 41.88251 | -99.94093 | 39908 ft | 422 kts | 242° |
| 2026-05-03 21:37 | 41.85100 | -100.00674 | 39909 ft | 422 kts | 242° |
| 2026-05-03 21:37 | 41.81905 | -100.07335 | 39910 ft | 422 kts | 242° |
| 2026-05-03 21:38 | 41.78748 | -100.13901 | 39911 ft | 422 kts | 242° |
| 2026-05-03 21:38 | 41.75565 | -100.20507 | 39892 ft | 422 kts | 242° |
| 2026-05-03 21:39 | 41.72379 | -100.27103 | 39912 ft | 421 kts | 242° |
| 2026-05-03 21:39 | 41.69201 | -100.33671 | 39922 ft | 420 kts | 242° |
| 2026-05-03 21:40 | 41.66024 | -100.40223 | 39918 ft | 420 kts | 242° |
| 2026-05-03 21:40 | 41.62841 | -100.46771 | 39918 ft | 420 kts | 242° |
| 2026-05-03 21:41 | 41.59657 | -100.53309 | 39908 ft | 420 kts | 242° |
| 2026-05-03 21:41 | 41.56466 | -100.59847 | 39895 ft | 420 kts | 242° |
| 2026-05-03 21:42 | 41.53272 | -100.66376 | 39909 ft | 420 kts | 242° |
| 2026-05-03 21:42 | 41.50075 | -100.72897 | 39908 ft | 420 kts | 242° |
| 2026-05-03 21:43 | 41.46871 | -100.79419 | 39901 ft | 420 kts | 242° |
| 2026-05-03 21:43 | 41.43671 | -100.85917 | 39911 ft | 419 kts | 242° |
| 2026-05-03 21:44 | 41.40468 | -100.92410 | 39906 ft | 419 kts | 242° |
| 2026-05-03 21:44 | 41.37306 | -100.98919 | 39902 ft | 417 kts | 245° |
| 2026-05-03 21:45 | 41.34873 | -101.05799 | 39904 ft | 413 kts | 251° |
| 2026-05-03 21:45 | 41.32631 | -101.12827 | 39901 ft | 412 kts | 251° |
| 2026-05-03 21:46 | 41.30385 | -101.19841 | 39902 ft | 412 kts | 251° |
| 2026-05-03 21:46 | 41.28129 | -101.26852 | 39904 ft | 412 kts | 251° |
| 2026-05-03 21:47 | 41.25869 | -101.33851 | 39896 ft | 412 kts | 250° |
| 2026-05-03 21:47 | 41.23602 | -101.40854 | 39909 ft | 413 kts | 250° |
| 2026-05-03 21:48 | 41.21343 | -101.47867 | 39918 ft | 413 kts | 251° |
| 2026-05-03 21:48 | 41.19092 | -101.54884 | 39925 ft | 413 kts | 251° |
| 2026-05-03 21:49 | 41.17222 | -101.60700 | 39937 ft | 412 kts | 251° |
| 2026-05-03 21:49 | 41.14966 | -101.67700 | 39932 ft | 412 kts | 250° |
| 2026-05-03 21:50 | 41.12707 | -101.74694 | 39941 ft | 413 kts | 250° |
| 2026-05-03 21:50 | 41.10439 | -101.81695 | 39943 ft | 414 kts | 250° |
| 2026-05-03 21:51 | 41.08162 | -101.88703 | 39942 ft | 414 kts | 250° |
| 2026-05-03 21:51 | 41.05882 | -101.95702 | 39931 ft | 414 kts | 250° |
| 2026-05-03 21:52 | 41.03599 | -102.02694 | 39923 ft | 414 kts | 250° |
| 2026-05-03 21:52 | 41.01310 | -102.09689 | 39907 ft | 414 kts | 250° |
| 2026-05-03 21:53 | 40.99013 | -102.16691 | 39894 ft | 415 kts | 250° |
| 2026-05-03 21:53 | 40.96711 | -102.23689 | 39872 ft | 415 kts | 250° |
| 2026-05-03 21:54 | 40.94407 | -102.30675 | 39613 ft | 412 kts | 250° |
| 2026-05-03 21:54 | 40.93267 | -102.34124 | 39387 ft | 407 kts | 250° |
| 2026-05-03 21:54 | 40.92137 | -102.37539 | 39037 ft | 404 kts | 250° |
| 2026-05-03 21:55 | 40.91011 | -102.40942 | 38588 ft | 404 kts | 250° |
| 2026-05-03 21:55 | 40.89885 | -102.44339 | 38077 ft | 403 kts | 250° |
| 2026-05-03 21:55 | 40.88763 | -102.47720 | 37638 ft | 400 kts | 250° |
| 2026-05-03 21:55 | 40.87646 | -102.51080 | 37174 ft | 398 kts | 249° |
| 2026-05-03 21:56 | 40.86536 | -102.54416 | 36742 ft | 396 kts | 249° |
| 2026-05-03 21:56 | 40.85427 | -102.57744 | 36277 ft | 395 kts | 249° |
| 2026-05-03 21:56 | 40.84323 | -102.61054 | 35817 ft | 393 kts | 249° |
| 2026-05-03 21:56 | 40.83219 | -102.64360 | 35300 ft | 394 kts | 249° |
| 2026-05-03 21:57 | 40.82111 | -102.67675 | 34772 ft | 394 kts | 249° |
| 2026-05-03 21:57 | 40.81001 | -102.70989 | 34235 ft | 395 kts | 249° |
| 2026-05-03 21:57 | 40.79886 | -102.74313 | 33671 ft | 399 kts | 249° |
| 2026-05-03 21:57 | 40.78742 | -102.77727 | 33033 ft | 414 kts | 249° |
| 2026-05-03 21:58 | 40.77561 | -102.81241 | 32540 ft | 423 kts | 249° |
| 2026-05-03 21:58 | 40.76361 | -102.84800 | 32183 ft | 426 kts | 249° |
| 2026-05-03 21:58 | 40.75169 | -102.88327 | 31790 ft | 427 kts | 249° |
| 2026-05-03 21:58 | 40.73959 | -102.91903 | 31389 ft | 428 kts | 249° |
| 2026-05-03 21:59 | 40.72744 | -102.95489 | 30987 ft | 429 kts | 249° |
| 2026-05-03 21:59 | 40.71526 | -102.99085 | 30573 ft | 431 kts | 248° |
| 2026-05-03 21:59 | 40.70300 | -103.02698 | 30167 ft | 432 kts | 248° |
| 2026-05-03 21:59 | 40.69071 | -103.06318 | 29742 ft | 434 kts | 248° |
| 2026-05-03 22:00 | 40.67836 | -103.09954 | 29297 ft | 436 kts | 248° |
| 2026-05-03 22:00 | 40.66610 | -103.13573 | 28956 ft | 437 kts | 249° |
| 2026-05-03 22:00 | 40.65368 | -103.17239 | 28538 ft | 439 kts | 249° |
| 2026-05-03 22:00 | 40.64119 | -103.20912 | 28123 ft | 441 kts | 248° |
| 2026-05-03 22:01 | 40.62862 | -103.24603 | 27698 ft | 443 kts | 248° |
| 2026-05-03 22:01 | 40.61601 | -103.28298 | 27273 ft | 444 kts | 248° |
| 2026-05-03 22:01 | 40.60327 | -103.32027 | 26825 ft | 446 kts | 248° |
| 2026-05-03 22:01 | 40.59065 | -103.35714 | 26451 ft | 437 kts | 248° |
| 2026-05-03 22:02 | 40.57831 | -103.39305 | 26188 ft | 423 kts | 248° |
| 2026-05-03 22:02 | 40.56635 | -103.42779 | 25951 ft | 410 kts | 248° |
| 2026-05-03 22:02 | 40.55479 | -103.46133 | 25720 ft | 397 kts | 248° |
| 2026-05-03 22:02 | 40.54357 | -103.49391 | 25512 ft | 385 kts | 248° |
| 2026-05-03 22:03 | 40.53263 | -103.52570 | 25109 ft | 379 kts | 248° |
| 2026-05-03 22:03 | 40.52181 | -103.55718 | 24608 ft | 375 kts | 248° |
| 2026-05-03 22:03 | 40.51118 | -103.58807 | 23880 ft | 370 kts | 248° |
| 2026-05-03 22:03 | 40.50056 | -103.61893 | 23412 ft | 372 kts | 248° |
| 2026-05-03 22:04 | 40.48987 | -103.64994 | 23018 ft | 372 kts | 247° |
| 2026-05-03 22:04 | 40.47923 | -103.68072 | 22680 ft | 369 kts | 247° |
| 2026-05-03 22:04 | 40.46865 | -103.71130 | 22328 ft | 367 kts | 247° |
| 2026-05-03 22:04 | 40.45809 | -103.74171 | 22001 ft | 365 kts | 246° |
| 2026-05-03 22:05 | 40.44625 | -103.77112 | 21701 ft | 364 kts | 242° |
| 2026-05-03 22:05 | 40.43338 | -103.79971 | 21435 ft | 363 kts | 240° |
| 2026-05-03 22:05 | 40.42035 | -103.82808 | 21152 ft | 362 kts | 240° |
| 2026-05-03 22:05 | 40.40754 | -103.85588 | 20871 ft | 361 kts | 240° |
| 2026-05-03 22:06 | 40.39455 | -103.88410 | 20569 ft | 360 kts | 240° |
| 2026-05-03 22:06 | 40.38161 | -103.91221 | 20286 ft | 360 kts | 240° |
| 2026-05-03 22:06 | 40.36870 | -103.94025 | 19995 ft | 359 kts | 240° |
| 2026-05-03 22:06 | 40.35600 | -103.96780 | 19802 ft | 347 kts | 240° |
| 2026-05-03 22:07 | 40.34365 | -103.99457 | 19539 ft | 339 kts | 240° |
| 2026-05-03 22:07 | 40.33160 | -104.02073 | 19266 ft | 332 kts | 240° |
| 2026-05-03 22:07 | 40.31949 | -104.04620 | 18996 ft | 326 kts | 236° |
| 2026-05-03 22:07 | 40.30442 | -104.06808 | 18615 ft | 324 kts | 224° |
| 2026-05-03 22:08 | 40.28733 | -104.08724 | 18252 ft | 322 kts | 221° |
| 2026-05-03 22:08 | 40.27008 | -104.10557 | 17957 ft | 318 kts | 220° |
| 2026-05-03 22:08 | 40.25287 | -104.12379 | 17663 ft | 318 kts | 220° |
| 2026-05-03 22:08 | 40.23565 | -104.14208 | 17389 ft | 318 kts | 220° |
| 2026-05-03 22:09 | 40.21852 | -104.16032 | 17132 ft | 318 kts | 220° |
| 2026-05-03 22:09 | 40.20142 | -104.17854 | 16854 ft | 316 kts | 220° |
| 2026-05-03 22:09 | 40.18442 | -104.19668 | 16581 ft | 315 kts | 221° |
| 2026-05-03 22:10 | 40.15061 | -104.23275 | 16052 ft | 314 kts | 221° |
| 2026-05-03 22:10 | 40.13370 | -104.25078 | 15783 ft | 314 kts | 221° |
| 2026-05-03 22:10 | 40.11679 | -104.26878 | 15511 ft | 313 kts | 221° |
| 2026-05-03 22:10 | 40.09994 | -104.28671 | 15246 ft | 312 kts | 221° |
| 2026-05-03 22:11 | 40.08324 | -104.30446 | 14982 ft | 310 kts | 221° |
| 2026-05-03 22:11 | 40.06647 | -104.32228 | 14734 ft | 309 kts | 221° |
| 2026-05-03 22:11 | 40.04984 | -104.33993 | 14483 ft | 308 kts | 221° |
| 2026-05-03 22:11 | 40.03323 | -104.35756 | 14235 ft | 307 kts | 221° |
| 2026-05-03 22:12 | 40.01674 | -104.37509 | 13989 ft | 305 kts | 223° |
| 2026-05-03 22:12 | 40.00043 | -104.39271 | 13747 ft | 304 kts | 223° |
| 2026-05-03 22:12 | 39.98418 | -104.41023 | 13485 ft | 302 kts | 223° |
| 2026-05-03 22:12 | 39.96796 | -104.42761 | 13233 ft | 302 kts | 223° |
| 2026-05-03 22:13 | 39.95177 | -104.44488 | 12988 ft | 300 kts | 223° |
| 2026-05-03 22:13 | 39.93561 | -104.46207 | 12749 ft | 299 kts | 223° |
| 2026-05-03 22:13 | 39.91955 | -104.47910 | 12554 ft | 294 kts | 223° |
| 2026-05-03 22:13 | 39.90267 | -104.49357 | 12364 ft | 289 kts | 207° |
| 2026-05-03 22:14 | 39.88321 | -104.49976 | 12139 ft | 289 kts | 189° |
| 2026-05-03 22:14 | 39.86337 | -104.50080 | 11917 ft | 281 kts | 185° |
| 2026-05-03 22:14 | 39.84411 | -104.50093 | 11655 ft | 273 kts | 184° |
| 2026-05-03 22:14 | 39.82544 | -104.50098 | 11426 ft | 264 kts | 185° |
| 2026-05-03 22:15 | 39.80735 | -104.50111 | 11236 ft | 257 kts | 184° |
| 2026-05-03 22:15 | 39.78944 | -104.50119 | 11051 ft | 258 kts | 185° |
| 2026-05-03 22:15 | 39.77150 | -104.50122 | 10837 ft | 258 kts | 185° |
| 2026-05-03 22:15 | 39.75357 | -104.50123 | 10602 ft | 258 kts | 184° |
| 2026-05-03 22:16 | 39.73566 | -104.50126 | 10370 ft | 257 kts | 184° |
| 2026-05-03 22:16 | 39.71786 | -104.50128 | 10142 ft | 256 kts | 185° |
| 2026-05-03 22:16 | 39.70010 | -104.50132 | 9910 ft | 255 kts | 185° |
| 2026-05-03 22:16 | 39.68240 | -104.50136 | 9644 ft | 253 kts | 184° |
| 2026-05-03 22:17 | 39.66482 | -104.50140 | 9379 ft | 252 kts | 185° |
| 2026-05-03 22:17 | 39.64737 | -104.50143 | 9118 ft | 247 kts | 185° |
| 2026-05-03 22:17 | 39.63052 | -104.50142 | 8982 ft | 236 kts | 185° |
| 2026-05-03 22:17 | 39.61467 | -104.50321 | 8965 ft | 223 kts | 203° |
| 2026-05-03 22:18 | 39.60171 | -104.51312 | 8959 ft | 213 kts | 225° |
| 2026-05-03 22:18 | 39.59068 | -104.52562 | 8953 ft | 209 kts | 227° |
| 2026-05-03 22:18 | 39.58028 | -104.53884 | 8919 ft | 212 kts | 238° |
| 2026-05-03 22:18 | 39.57499 | -104.55647 | 8945 ft | 213 kts | 263° |
| 2026-05-03 22:19 | 39.57304 | -104.57549 | 8928 ft | 210 kts | 266° |
| 2026-05-03 22:19 | 39.57171 | -104.59346 | 8946 ft | 193 kts | 268° |
| 2026-05-03 22:19 | 39.57336 | -104.61013 | 8952 ft | 187 kts | 296° |
| 2026-05-03 22:19 | 39.58147 | -104.62319 | 8956 ft | 187 kts | 314° |
| 2026-05-03 22:20 | 39.59120 | -104.63447 | 8951 ft | 189 kts | 317° |
| 2026-05-03 22:20 | 39.60108 | -104.64537 | 8971 ft | 188 kts | 318° |
| 2026-05-03 22:20 | 39.61138 | -104.65563 | 8956 ft | 187 kts | 328° |
| 2026-05-03 22:20 | 39.62376 | -104.66119 | 8984 ft | 192 kts | 345° |
| 2026-05-03 22:21 | 39.63714 | -104.66270 | 8982 ft | 195 kts | 354° |
| 2026-05-03 22:21 | 39.65079 | -104.66255 | 8842 ft | 196 kts | 356° |
| 2026-05-03 22:21 | 39.66443 | -104.66231 | 8582 ft | 197 kts | 356° |
| 2026-05-03 22:21 | 39.67807 | -104.66217 | 8311 ft | 196 kts | 356° |
| 2026-05-03 22:22 | 39.69163 | -104.66204 | 8015 ft | 193 kts | 357° |
| 2026-05-03 22:22 | 39.70488 | -104.66189 | 7775 ft | 190 kts | 355° |
| 2026-05-03 22:22 | 39.71794 | -104.66173 | 7517 ft | 183 kts | 356° |
| 2026-05-03 22:22 | 39.73026 | -104.66158 | 7322 ft | 173 kts | 355° |
| 2026-05-03 22:23 | 39.74183 | -104.66143 | 7110 ft | 159 kts | 353° |
| 2026-05-03 22:23 | 39.75255 | -104.66131 | 6920 ft | 150 kts | 353° |
| 2026-05-03 22:23 | 39.76286 | -104.66122 | 6729 ft | 148 kts | 351° |
| 2026-05-03 22:23 | 39.77324 | -104.66114 | 6547 ft | 150 kts | 356° |
| 2026-05-03 22:24 | 39.78366 | -104.66102 | 6360 ft | 149 kts | 354° |
| 2026-05-03 22:24 | 39.79404 | -104.66091 | 6239 ft | 150 kts | 356° |
| 2026-05-03 22:24 | 39.80444 | -104.66063 | 5967 ft | 147 kts | 354° |
| 2026-05-03 22:24 | 39.81478 | -104.66051 | 5750 ft | 150 kts | 354° |
| 2026-05-03 22:25 | 39.82520 | -104.66055 | 5496 ft | 149 kts | 358° |
| 2026-05-03 22:25 | 39.83514 | -104.66047 | 5363 ft | 130 kts | 1° |
| 2026-05-03 22:25 | 39.84217 | -104.66031 | 5368 ft | 72 kts | 2° |
| 2026-05-03 22:25 | 39.84633 | -104.66028 | 5367 ft | 47 kts | 357° |
| 2026-05-03 22:26 | 39.84884 | -104.66139 | 5368 ft | 24 kts | 329° |
| 2026-05-03 22:26 | 39.85030 | -104.66231 | 5366 ft | 22 kts | 346° |
| 2026-05-03 22:26 | 39.85183 | -104.66239 | 5368 ft | 22 kts | 0° |
| 2026-05-03 22:26 | 39.85334 | -104.66239 | 5368 ft | 21 kts | 1° |
| 2026-05-03 22:27 | 39.85482 | -104.66234 | 5368 ft | 18 kts | 1° |
| 2026-05-03 22:27 | 39.85575 | -104.66272 | 5366 ft | 13 kts | 297° |
| 2026-05-03 22:27 | 39.85570 | -104.66367 | 5367 ft | 9 kts | 241° |
| 2026-05-03 22:27 | 39.85566 | -104.66407 | 5367 ft | 8 kts | 278° |
| 2026-05-03 22:28 | 39.85583 | -104.66559 | 5370 ft | 22 kts | 275° |
| 2026-05-03 22:28 | 39.85526 | -104.66735 | 5367 ft | 18 kts | 253° |
| 2026-05-03 22:28 | 39.85556 | -104.66875 | 5365 ft | 20 kts | 293° |
| 2026-05-03 22:28 | 39.85543 | -104.67008 | 5365 ft | 14 kts | 211° |
| 2026-05-03 22:29 | 39.85521 | -104.67066 | 5367 ft | 12 kts | 264° |
| 2026-05-03 22:29 | 39.85520 | -104.67234 | 5367 ft | 20 kts | 272° |
| 2026-05-03 22:29 | 39.85504 | -104.67304 | 5366 ft | 4 kts | 203° |
| 2026-05-03 22:29 | 39.85453 | -104.67311 | 5368 ft | 6 kts | 181° |
| 2026-05-03 22:30 | 39.85435 | -104.67311 | 5368 ft | 0 kts | 180° |